Time;durP1;ratioP1;P1;durP2;ratioP2;P2;SDS_P1;SDS_P2;PMS_P1;PMS_P2;Temp;Humidity;BMP_temperature;BMP_pressure;BME280_temperature;BME280_humidity;BME280_pressure;Samples;Min_cycle;Max_cycle;Signal;HPM_P1;HPM_P2
2022/06/25 00:00:37;;;;;;;7.80;7.37;;;22.90;1.00;;;;;;6318423;28;20239;-52
2022/06/25 00:03:42;;;;;;;7.87;7.37;;;22.90;1.00;;;;;;6324111;28;20232;-53
2022/06/25 00:06:47;;;;;;;7.70;7.10;;;22.80;1.00;;;;;;6325259;28;20236;-54
2022/06/25 00:09:50;;;;;;;8.10;7.60;;;22.80;1.00;;;;;;6319190;28;20427;-54
2022/06/25 00:12:56;;;;;;;8.93;8.33;;;22.80;1.00;;;;;;6329563;28;20236;-53
2022/06/25 00:15:59;;;;;;;8.43;7.83;;;22.70;1.00;;;;;;6332104;28;20251;-54
2022/06/25 00:19:04;;;;;;;8.77;8.13;;;22.70;1.00;;;;;;6315491;28;20239;-54
2022/06/25 00:22:07;;;;;;;9.20;8.67;;;22.70;1.00;;;;;;6316162;28;21247;-53
2022/06/25 00:25:10;;;;;;;10.00;9.23;;;22.60;1.00;;;;;;6333103;28;20802;-55
2022/06/25 00:28:13;;;;;;;10.40;9.60;;;22.50;1.00;;;;;;6328256;28;20338;-55
2022/06/25 00:31:16;;;;;;;9.90;9.30;;;22.50;1.00;;;;;;6327748;28;20602;-55
2022/06/25 00:34:20;;;;;;;11.50;10.60;;;22.40;1.00;;;;;;6336604;27;20242;-55
2022/06/25 00:37:23;;;;;;;12.27;11.17;;;22.40;1.00;;;;;;6327241;28;20942;-55
2022/06/25 00:40:26;;;;;;;13.60;12.50;;;22.40;1.00;;;;;;6331223;28;20432;-54
2022/06/25 00:43:29;;;;;;;13.67;12.47;;;22.30;1.00;;;;;;6327130;28;20746;-54
2022/06/25 00:46:32;;;;;;;16.43;15.13;;;22.30;1.00;;;;;;6320081;28;20240;-54
2022/06/25 00:49:36;;;;;;;24.00;21.50;;;22.20;1.00;;;;;;6330251;27;20289;-54
2022/06/25 00:52:42;;;;;;;24.27;21.97;;;22.10;1.00;;;;;;6326775;28;20603;-54
2022/06/25 00:55:58;;;;;;;27.40;24.80;;;22.10;1.00;;;;;;6327585;28;20328;-54
2022/06/25 00:59:05;;;;;;;29.60;26.77;;;22.10;1.00;;;;;;6312569;28;20274;-58
2022/06/25 01:02:08;;;;;;;30.33;27.33;;;22.00;1.00;;;;;;6321602;28;20318;-55
2022/06/25 01:05:15;;;;;;;30.93;28.23;;;21.90;1.00;;;;;;6338519;27;20322;-55
2022/06/25 01:08:18;;;;;;;28.33;25.93;;;21.90;1.00;;;;;;6327374;28;20259;-53
2022/06/25 01:11:23;;;;;;;30.77;27.70;;;21.80;1.00;;;;;;6324788;28;20228;-54
2022/06/25 01:14:26;;;;;;;31.10;28.10;;;21.70;1.00;;;;;;6326931;28;20268;-53
2022/06/25 01:17:29;;;;;;;29.40;26.87;;;21.70;1.00;;;;;;6316680;28;20402;-54
2022/06/25 01:20:34;;;;;;;27.33;24.83;;;21.60;1.00;;;;;;6294849;28;20238;-53
2022/06/25 01:23:38;;;;;;;24.10;21.77;;;21.60;1.00;;;;;;6326084;28;20309;-53
2022/06/25 01:26:42;;;;;;;22.40;20.37;;;21.60;1.00;;;;;;6331709;28;20231;-54
2022/06/25 01:29:45;;;;;;;22.43;20.43;;;21.60;1.00;;;;;;6327115;27;20350;-53
2022/06/25 01:32:48;;;;;;;20.83;19.03;;;21.50;1.00;;;;;;6337491;27;20239;-54
2022/06/25 01:35:51;;;;;;;21.93;20.10;;;21.50;1.00;;;;;;6332266;27;20240;-54
2022/06/25 01:38:59;;;;;;;20.17;18.13;;;21.50;1.00;;;;;;6339665;27;20762;-54
2022/06/25 01:42:03;;;;;;;18.93;17.47;;;21.40;1.00;;;;;;6327201;28;20606;-54
2022/06/25 01:45:08;;;;;;;19.57;17.83;;;21.50;1.00;;;;;;6323427;28;20376;-54
2022/06/25 01:48:11;;;;;;;18.73;17.03;;;21.40;1.00;;;;;;6334592;28;20386;-55
2022/06/25 01:51:15;;;;;;;18.90;17.50;;;21.40;1.00;;;;;;6329189;28;20232;-54
2022/06/25 01:54:19;;;;;;;18.67;17.00;;;21.40;1.00;;;;;;6334067;28;20832;-55
2022/06/25 01:57:28;;;;;;;19.70;18.07;;;21.30;1.00;;;;;;6319728;28;20242;-54
2022/06/25 02:00:32;;;;;;;19.57;17.77;;;21.30;1.00;;;;;;6333818;28;20296;-55
2022/06/25 02:03:41;;;;;;;19.93;18.27;;;21.30;1.00;;;;;;6340960;27;20251;-55
2022/06/25 02:06:44;;;;;;;19.13;17.50;;;21.20;1.00;;;;;;6332659;28;20236;-56
2022/06/25 02:09:49;;;;;;;19.00;17.40;;;21.20;1.00;;;;;;6330534;28;20240;-55
2022/06/25 02:12:58;;;;;;;19.23;17.50;;;21.20;1.00;;;;;;6334704;28;20447;-55
2022/06/25 02:16:01;;;;;;;18.77;17.07;;;21.20;1.00;;;;;;6320056;28;20659;-55
2022/06/25 02:19:04;;;;;;;18.60;17.03;;;21.10;1.00;;;;;;6320290;28;20815;-56
2022/06/25 02:22:07;;;;;;;18.87;17.27;;;21.10;1.00;;;;;;6320741;28;20520;-54
2022/06/25 02:25:11;;;;;;;19.37;17.73;;;21.10;1.00;;;;;;6335536;28;20672;-55
2022/06/25 02:28:15;;;;;;;18.40;16.83;;;21.10;1.00;;;;;;6334145;28;20735;-55
2022/06/25 02:31:18;;;;;;;16.73;15.27;;;21.10;1.00;;;;;;6321775;28;20424;-55
2022/06/25 02:34:21;;;;;;;18.83;17.33;;;21.00;1.00;;;;;;6342157;27;20739;-54
2022/06/25 02:37:24;;;;;;;17.63;16.03;;;21.00;1.00;;;;;;6325903;28;20853;-54
2022/06/25 02:40:28;;;;;;;18.80;17.17;;;20.90;1.00;;;;;;6331104;28;20331;-55
2022/06/25 02:43:31;;;;;;;17.77;16.37;;;20.90;1.00;;;;;;6325004;28;20337;-54
2022/06/25 02:46:37;;;;;;;18.87;17.37;;;20.90;1.00;;;;;;6335331;28;20232;-55
2022/06/25 02:49:41;;;;;;;18.30;16.90;;;20.90;1.00;;;;;;6326476;28;20240;-54
2022/06/25 02:52:44;;;;;;;17.47;16.20;;;20.90;1.00;;;;;;6332132;28;20361;-55
2022/06/25 02:59:09;;;;;;;19.83;18.03;;;20.80;1.00;;;;;;6327598;28;20385;-55
2022/06/25 03:02:12;;;;;;;17.97;16.57;;;20.80;1.00;;;;;;6300165;28;20246;-50
2022/06/25 03:05:15;;;;;;;17.67;16.27;;;20.80;1.00;;;;;;6328938;28;20474;-54
2022/06/25 03:08:18;;;;;;;17.93;16.43;;;20.80;1.00;;;;;;6330977;28;20327;-55
2022/06/25 03:11:24;;;;;;;19.83;18.23;;;20.80;1.00;;;;;;6325187;28;20393;-55
2022/06/25 03:14:28;;;;;;;19.60;17.97;;;20.80;1.00;;;;;;6330261;28;20240;-54
2022/06/25 03:17:34;;;;;;;18.37;16.87;;;20.80;1.00;;;;;;6333173;28;20258;-55
2022/06/25 03:20:38;;;;;;;17.30;16.00;;;20.80;1.00;;;;;;6329879;28;20232;-55
2022/06/25 03:23:41;;;;;;;17.93;16.50;;;20.80;1.00;;;;;;6330688;28;20236;-54
2022/06/25 03:26:45;;;;;;;20.50;18.80;;;20.80;1.00;;;;;;6328703;28;20327;-56
2022/06/25 03:29:48;;;;;;;19.43;17.67;;;20.80;1.00;;;;;;6329487;28;20773;-54
2022/06/25 03:32:51;;;;;;;19.83;17.93;;;20.90;1.00;;;;;;6313829;27;21005;-54
2022/06/25 03:35:54;;;;;;;19.87;18.07;;;20.90;1.00;;;;;;6331947;27;20235;-54
2022/06/25 03:38:57;;;;;;;19.97;18.27;;;20.90;1.00;;;;;;6328218;28;20501;-54
2022/06/25 03:42:02;;;;;;;19.63;18.13;;;21.00;1.00;;;;;;6328481;27;20235;-55
2022/06/25 03:45:06;;;;;;;18.03;16.60;;;21.00;1.00;;;;;;6337352;27;20251;-54
2022/06/25 03:48:09;;;;;;;20.37;18.43;;;21.00;1.00;;;;;;6333111;27;20236;-55
2022/06/25 03:51:14;;;;;;;18.60;17.10;;;21.10;1.00;;;;;;6326654;28;20251;-54
2022/06/25 03:54:17;;;;;;;19.27;17.57;;;21.10;1.00;;;;;;6338009;27;20596;-54
2022/06/25 03:57:21;;;;;;;18.97;17.37;;;21.10;1.00;;;;;;6332467;27;20293;-54
2022/06/25 04:00:24;;;;;;;19.20;17.47;;;21.10;1.00;;;;;;6327876;27;20357;-52
2022/06/25 04:03:27;;;;;;;18.57;17.10;;;21.20;1.00;;;;;;6345301;27;20713;-55
2022/06/25 04:06:30;;;;;;;18.23;16.83;;;21.30;1.00;;;;;;6322066;28;20227;-54
2022/06/25 04:09:34;;;;;;;20.37;18.33;;;21.30;1.00;;;;;;6323768;27;20388;-53
2022/06/25 04:12:38;;;;;;;18.93;17.33;;;21.40;1.00;;;;;;6320042;28;20781;-54
2022/06/25 04:15:42;;;;;;;19.63;18.07;;;21.50;1.00;;;;;;6328394;28;20259;-55
2022/06/25 04:18:45;;;;;;;20.60;19.10;;;21.50;1.00;;;;;;6317438;28;20240;-55
2022/06/25 04:21:51;;;;;;;19.80;18.07;;;21.60;1.00;;;;;;6323430;28;20307;-58
2022/06/25 04:24:54;;;;;;;20.23;18.63;;;21.70;1.00;;;;;;6328416;27;20373;-54
2022/06/25 04:31:21;;;;;;;21.67;19.57;;;21.80;1.00;;;;;;6325757;27;20380;-55
2022/06/25 04:34:25;;;;;;;21.30;19.53;;;21.90;1.00;;;;;;6334626;27;20250;-55
2022/06/25 04:37:28;;;;;;;21.97;20.07;;;21.90;1.00;;;;;;6333545;27;20377;-55
2022/06/25 04:40:31;;;;;;;21.33;19.53;;;21.90;1.00;;;;;;6320472;27;20232;-55
2022/06/25 04:43:35;;;;;;;19.53;18.03;;;22.00;1.00;;;;;;6327952;27;20268;-56
2022/06/25 04:46:38;;;;;;;20.47;18.80;;;21.90;1.00;;;;;;6323935;27;20517;-54
2022/06/25 04:49:41;;;;;;;21.27;19.40;;;22.00;1.00;;;;;;6323280;27;20656;-55
2022/06/25 04:52:44;;;;;;;21.13;19.43;;;22.00;1.00;;;;;;6337571;27;20719;-54
2022/06/25 04:55:47;;;;;;;20.90;19.27;;;22.00;1.00;;;;;;6334719;27;20228;-54
2022/06/25 04:58:53;;;;;;;19.43;17.83;;;22.10;1.00;;;;;;6329999;27;20239;-54
2022/06/25 05:01:56;;;;;;;19.37;17.97;;;22.20;1.00;;;;;;6327644;27;20381;-54
2022/06/25 05:05:00;;;;;;;19.33;17.73;;;22.30;1.00;;;;;;6336571;27;20837;-57
2022/06/25 05:08:03;;;;;;;18.40;17.00;;;22.60;1.00;;;;;;6321119;28;20470;-54
2022/06/25 05:11:06;;;;;;;20.80;19.07;;;23.00;1.00;;;;;;6328660;28;20319;-54
2022/06/25 05:14:11;;;;;;;19.77;18.37;;;23.30;1.00;;;;;;6331567;28;20370;-54
2022/06/25 05:17:14;;;;;;;19.57;17.97;;;23.60;1.00;;;;;;6329815;27;20252;-56
2022/06/25 05:20:17;;;;;;;19.90;18.37;;;23.70;1.00;;;;;;6323535;28;20331;-54
2022/06/25 05:23:20;;;;;;;18.47;17.17;;;23.90;1.00;;;;;;6296972;28;20600;-53
2022/06/25 05:26:23;;;;;;;18.73;17.23;;;24.30;1.00;;;;;;6327904;28;20324;-53
2022/06/25 05:29:27;;;;;;;19.80;18.07;;;24.60;1.00;;;;;;6330527;28;20239;-55
2022/06/25 05:32:34;;;;;;;17.70;16.50;;;24.80;1.00;;;;;;6328425;28;20234;-55
2022/06/25 05:35:37;;;;;;;19.90;18.40;;;25.10;1.00;;;;;;6329014;28;20312;-55
2022/06/25 05:38:40;;;;;;;19.17;17.73;;;25.30;1.00;;;;;;6323503;28;20235;-54
2022/06/25 05:41:44;;;;;;;17.83;16.30;;;25.50;1.00;;;;;;6321674;28;20784;-54
2022/06/25 05:44:49;;;;;;;18.23;16.73;;;25.80;1.00;;;;;;6322522;28;20716;-54
2022/06/25 05:47:53;;;;;;;17.93;16.53;;;26.00;1.00;;;;;;6329523;28;20301;-52
2022/06/25 05:50:56;;;;;;;18.73;17.03;;;26.00;1.00;;;;;;6328688;28;20367;-54
2022/06/25 05:53:59;;;;;;;19.47;17.53;;;26.00;1.00;;;;;;6341152;28;20236;-54
2022/06/25 05:57:02;;;;;;;18.63;17.13;;;26.20;1.00;;;;;;6330330;28;20330;-55
2022/06/25 06:00:09;;;;;;;17.80;16.20;;;26.20;1.00;;;;;;6330997;28;20769;-54
2022/06/25 06:03:12;;;;;;;17.23;15.93;;;26.20;1.00;;;;;;6337034;28;20630;-56
2022/06/25 06:06:15;;;;;;;18.27;16.87;;;26.40;1.00;;;;;;6333057;28;20235;-53
2022/06/25 06:09:18;;;;;;;17.80;16.57;;;26.60;1.00;;;;;;6320674;28;20241;-55
2022/06/25 06:12:21;;;;;;;16.60;15.40;;;27.00;1.00;;;;;;6332109;28;20323;-55
2022/06/25 06:15:25;;;;;;;16.53;15.03;;;27.40;1.00;;;;;;6335875;27;20315;-54
2022/06/25 06:18:28;;;;;;;17.53;16.17;;;27.80;1.00;;;;;;6337010;27;20236;-51
2022/06/25 06:21:31;;;;;;;17.07;15.63;;;28.00;1.00;;;;;;6327365;28;20240;-53
2022/06/25 06:24:34;;;;;;;17.07;15.43;;;28.20;1.00;;;;;;6338828;27;20228;-53
2022/06/25 06:27:37;;;;;;;18.50;16.20;;;27.90;1.00;;;;;;6336453;27;20324;-53
2022/06/25 06:30:41;;;;;;;17.83;16.27;;;27.70;1.00;;;;;;6342269;27;20392;-54
2022/06/25 06:33:44;;;;;;;17.17;15.67;;;27.50;1.00;;;;;;6343485;27;20470;-56
2022/06/25 06:36:47;;;;;;;17.57;16.07;;;27.40;1.00;;;;;;6331793;28;20719;-55
2022/06/25 06:39:50;;;;;;;16.27;15.10;;;27.30;1.00;;;;;;6334677;27;20367;-55
2022/06/25 06:42:53;;;;;;;15.90;14.73;;;27.30;1.00;;;;;;6337632;27;20715;-54
2022/06/25 06:45:57;;;;;;;16.40;15.20;;;27.50;1.00;;;;;;6343855;27;20315;-55
2022/06/25 06:49:00;;;;;;;16.30;15.10;;;27.70;1.00;;;;;;6325638;27;20236;-54
2022/06/25 06:52:04;;;;;;;16.67;15.47;;;28.10;1.00;;;;;;6322416;27;20250;-55
2022/06/25 06:55:08;;;;;;;17.67;16.23;;;28.20;1.00;;;;;;6342836;27;20823;-54
2022/06/25 06:58:11;;;;;;;17.37;16.07;;;27.90;1.00;;;;;;6334946;27;20239;-54
2022/06/25 07:01:15;;;;;;;18.13;16.73;;;27.70;1.00;;;;;;6331499;28;20267;-55
2022/06/25 07:04:18;;;;;;;17.07;15.67;;;27.30;1.00;;;;;;6336460;27;20490;-53
2022/06/25 07:07:21;;;;;;;18.60;17.20;;;27.10;1.00;;;;;;6342287;27;20334;-54
2022/06/25 07:10:31;;;;;;;19.43;17.83;;;26.90;1.00;;;;;;6326994;28;20843;-54
2022/06/25 07:13:34;;;;;;;19.00;17.27;;;26.90;1.00;;;;;;6324576;27;20315;-54
2022/06/25 07:16:40;;;;;;;19.73;18.23;;;26.80;1.00;;;;;;6335765;27;20894;-55
2022/06/25 07:19:43;;;;;;;18.93;17.50;;;26.80;1.00;;;;;;6324256;28;20281;-54
2022/06/25 07:22:45;;;;;;;21.77;19.97;;;26.70;1.00;;;;;;6314525;27;20313;-54
2022/06/25 07:25:48;;;;;;;22.70;20.70;;;26.60;1.00;;;;;;6342334;27;20263;-54
2022/06/25 07:28:52;;;;;;;22.13;20.33;;;26.60;1.00;;;;;;6324756;28;20780;-54
2022/06/25 07:31:57;;;;;;;21.97;20.10;;;26.60;1.00;;;;;;6323511;28;20232;-54
2022/06/25 07:35:00;;;;;;;23.07;21.23;;;26.40;1.00;;;;;;6330839;27;20228;-54
2022/06/25 07:38:03;;;;;;;23.03;21.10;;;26.30;1.00;;;;;;6325009;28;20252;-54
2022/06/25 07:41:06;;;;;;;21.57;19.87;;;26.40;1.00;;;;;;6294793;28;20495;-54
2022/06/25 07:44:09;;;;;;;19.70;18.27;;;26.60;1.00;;;;;;6324165;28;20304;-54
2022/06/25 07:47:13;;;;;;;23.27;21.47;;;26.80;1.00;;;;;;6333473;27;20474;-55
2022/06/25 07:53:37;;;;;;;19.53;18.13;;;27.20;1.00;;;;;;6319386;27;20584;-51
2022/06/25 07:56:40;;;;;;;21.03;19.40;;;27.20;1.00;;;;;;6325772;28;20330;-52
2022/06/25 07:59:42;;;;;;;19.47;18.07;;;27.40;1.00;;;;;;6323980;28;20240;-52
2022/06/25 08:02:47;;;;;;;20.70;19.13;;;27.50;1.00;;;;;;6320112;28;20368;-54
2022/06/25 08:05:53;;;;;;;20.47;18.90;;;27.60;1.00;;;;;;6332293;28;20323;-54
2022/06/25 08:09:03;;;;;;;20.13;18.57;;;27.70;1.00;;;;;;6324390;28;20354;-54
2022/06/25 08:12:06;;;;;;;20.87;19.37;;;27.80;1.00;;;;;;6311876;28;20446;-55
2022/06/25 08:15:11;;;;;;;19.13;17.53;;;27.70;1.00;;;;;;6331140;28;20705;-56
2022/06/25 08:18:16;;;;;;;18.90;17.47;;;27.60;1.00;;;;;;6323403;28;20716;-54
2022/06/25 08:21:19;;;;;;;18.60;17.17;;;27.60;1.00;;;;;;6326645;27;20286;-54
2022/06/25 08:24:22;;;;;;;17.40;16.20;;;27.70;1.00;;;;;;6321560;28;20279;-55
2022/06/25 08:27:31;;;;;;;18.00;16.60;;;27.70;1.00;;;;;;6320079;28;20724;-54
2022/06/25 08:30:35;;;;;;;17.67;16.23;;;27.80;1.00;;;;;;6312517;28;20239;-53
2022/06/25 08:33:39;;;;;;;17.40;16.17;;;27.80;1.00;;;;;;6321632;28;20232;-54
2022/06/25 08:36:42;;;;;;;16.60;15.17;;;27.80;1.00;;;;;;6325699;28;20747;-55
2022/06/25 08:39:45;;;;;;;15.70;14.50;;;27.80;1.00;;;;;;6326411;28;20323;-55
2022/06/25 08:42:49;;;;;;;14.93;13.87;;;27.90;1.00;;;;;;6317275;27;20845;-53
2022/06/25 08:45:52;;;;;;;15.73;14.53;;;28.20;1.00;;;;;;6352197;27;20227;-54
2022/06/25 08:48:57;;;;;;;14.70;13.53;;;28.50;1.00;;;;;;6334626;27;20243;-55
2022/06/25 08:52:04;;;;;;;14.32;13.20;;;28.80;1.00;;;;;;6321607;28;20616;-54
2022/06/25 08:55:09;;;;;;;12.18;11.38;;;28.80;1.00;;;;;;6324210;28;20664;-59
2022/06/25 08:58:14;;;;;;;11.73;10.73;;;29.00;1.00;;;;;;6332695;27;20334;-54
2022/06/25 09:01:17;;;;;;;10.93;10.00;;;29.10;1.00;;;;;;6329825;27;20240;-53
2022/06/25 09:04:22;;;;;;;12.70;11.65;;;29.10;1.00;;;;;;6334450;27;20232;-54
2022/06/25 09:07:25;;;;;;;12.68;11.68;;;29.30;1.00;;;;;;6314062;28;20374;-55
2022/06/25 09:10:29;;;;;;;10.70;9.85;;;29.30;1.00;;;;;;6323141;28;20357;-53
2022/06/25 09:13:32;;;;;;;12.35;11.43;;;29.30;1.00;;;;;;6329432;28;20227;-53
2022/06/25 09:16:34;;;;;;;11.00;10.18;;;29.10;1.00;;;;;;6326734;28;20662;-53
2022/06/25 09:19:41;;;;;;;11.77;10.65;;;28.90;1.00;;;;;;6328481;28;20334;-55
2022/06/25 09:22:55;;;;;;;11.25;10.27;;;28.90;1.00;;;;;;6320424;28;20339;-54
2022/06/25 09:26:06;;;;;;;11.15;10.23;;;29.00;1.00;;;;;;6335252;28;20808;-54
2022/06/25 09:29:09;;;;;;;11.40;10.68;;;29.10;1.00;;;;;;6329125;28;20398;-54
2022/06/25 09:32:13;;;;;;;11.20;10.32;;;29.10;1.00;;;;;;6327215;28;20243;-53
2022/06/25 09:35:31;;;;;;;11.32;10.60;;;29.10;1.00;;;;;;6302800;28;20232;-53
2022/06/25 09:38:34;;;;;;;11.27;10.50;;;29.10;1.00;;;;;;6337913;28;20282;-53
2022/06/25 09:41:49;;;;;;;10.45;9.85;;;29.30;1.00;;;;;;6326460;28;20257;-54
2022/06/25 09:45:07;;;;;;;11.15;10.35;;;29.50;1.00;;;;;;6326696;28;20288;-53
2022/06/25 09:48:17;;;;;;;11.32;10.60;;;29.60;1.00;;;;;;6324582;28;20256;-56
2022/06/25 09:51:23;;;;;;;10.10;9.43;;;29.50;1.00;;;;;;6328213;27;20236;-55
2022/06/25 09:54:26;;;;;;;9.68;9.10;;;29.70;1.00;;;;;;6327822;27;20739;-53
2022/06/25 09:57:30;;;;;;;11.20;10.25;;;29.60;1.00;;;;;;6334349;27;20239;-54
2022/06/25 10:00:34;;;;;;;11.68;10.60;;;29.60;1.00;;;;;;6329686;27;20398;-52
2022/06/25 10:03:38;;;;;;;11.30;10.38;;;29.50;1.00;;;;;;6336046;27;20235;-52
2022/06/25 10:06:54;;;;;;;10.50;9.80;;;29.40;1.00;;;;;;6332228;28;20565;-55
2022/06/25 10:09:57;;;;;;;9.68;9.10;;;29.30;1.00;;;;;;6328866;28;20233;-54
2022/06/25 10:13:04;;;;;;;9.02;8.52;;;29.40;1.00;;;;;;6329332;27;20461;-54
2022/06/25 10:16:08;;;;;;;9.55;8.88;;;29.60;1.00;;;;;;6336272;27;20365;-55
2022/06/25 10:19:11;;;;;;;9.38;8.88;;;29.80;1.00;;;;;;6341480;27;20239;-54
2022/06/25 10:22:16;;;;;;;8.25;7.68;;;29.90;1.00;;;;;;6338105;27;20720;-55
2022/06/25 10:25:22;;;;;;;9.43;8.60;;;29.90;1.00;;;;;;6335882;28;20699;-55
2022/06/25 10:28:26;;;;;;;9.80;9.00;;;29.60;1.00;;;;;;6337394;27;20228;-54
2022/06/25 10:31:31;;;;;;;8.93;8.43;;;29.50;1.00;;;;;;6323214;28;20288;-54
2022/06/25 10:34:34;;;;;;;8.65;8.23;;;29.40;1.00;;;;;;6343789;27;20240;-54
2022/06/25 10:38:02;;;;;;;8.40;7.70;;;29.30;1.00;;;;;;6336723;27;20232;-54
2022/06/25 10:44:30;;;;;;;8.50;7.50;;;29.20;1.00;;;;;;6287406;28;20769;-54
2022/06/25 10:47:38;;;;;;;9.07;8.35;;;29.30;1.00;;;;;;6333447;28;20284;-54
2022/06/25 10:50:55;;;;;;;7.60;7.00;;;29.20;1.00;;;;;;6319368;28;20598;-54
2022/06/25 10:54:04;;;;;;;8.45;7.78;;;29.30;1.00;;;;;;6318248;28;20763;-54
2022/06/25 10:57:08;;;;;;;8.52;8.02;;;29.40;1.00;;;;;;6319825;28;20285;-54
2022/06/25 11:00:15;;;;;;;8.77;8.35;;;29.40;1.00;;;;;;6295252;28;20366;-52
2022/06/25 11:03:42;;;;;;;7.90;7.40;;;29.50;1.00;;;;;;6321283;28;20319;-54
2022/06/25 11:06:45;;;;;;;7.57;7.22;;;29.60;1.00;;;;;;6322541;28;20301;-54
2022/06/25 11:10:01;;;;;;;7.63;7.32;;;29.60;1.00;;;;;;6323618;27;20639;-56
2022/06/25 11:13:04;;;;;;;9.23;8.07;;;29.70;1.00;;;;;;6320097;28;20228;-55
2022/06/25 11:16:13;;;;;;;9.65;9.05;;;29.70;1.00;;;;;;6324114;28;20224;-54
2022/06/25 11:19:17;;;;;;;10.45;9.65;;;29.40;1.00;;;;;;6335619;27;20327;-56
2022/06/25 11:22:20;;;;;;;10.48;9.98;;;29.30;1.00;;;;;;6317350;28;20343;-54
2022/06/25 11:29:05;;;;;;;9.93;9.43;;;29.30;1.00;;;;;;6304718;27;20365;-54
2022/06/25 11:32:10;;;;;;;10.20;9.35;;;29.30;1.00;;;;;;6312266;28;20685;-54
2022/06/25 11:35:17;;;;;;;9.87;9.10;;;29.30;1.00;;;;;;6323136;28;20727;-53
2022/06/25 11:38:22;;;;;;;11.77;10.73;;;29.40;1.00;;;;;;6323329;27;20421;-54
2022/06/25 11:41:29;;;;;;;11.88;10.98;;;29.30;1.00;;;;;;6323424;27;20233;-54
2022/06/25 11:44:48;;;;;;;11.43;10.73;;;29.10;1.00;;;;;;6325997;28;20478;-54
2022/06/25 11:47:51;;;;;;;11.60;10.68;;;29.10;1.00;;;;;;6327666;28;20513;-54
2022/06/25 11:50:55;;;;;;;11.38;10.65;;;29.00;1.00;;;;;;6319607;28;20311;-54
2022/06/25 11:53:58;;;;;;;10.47;9.87;;;28.80;1.00;;;;;;6320400;27;20242;-54
2022/06/25 11:57:04;;;;;;;12.57;11.68;;;28.70;1.00;;;;;;6319489;28;20243;-54
2022/06/25 12:00:09;;;;;;;11.07;10.38;;;28.60;1.00;;;;;;6333282;27;20311;-53
2022/06/25 12:03:12;;;;;;;12.27;11.43;;;28.60;1.00;;;;;;6312213;28;20316;-54
2022/06/25 12:06:20;;;;;;;15.98;14.60;;;28.60;1.00;;;;;;6318631;28;20236;-56
2022/06/25 12:09:23;;;;;;;15.63;14.60;;;28.60;1.00;;;;;;6326888;27;20796;-55
2022/06/25 12:12:28;;;;;;;14.17;13.27;;;28.60;1.00;;;;;;6322268;28;20286;-55
2022/06/25 12:15:32;;;;;;;15.67;14.47;;;28.60;1.00;;;;;;6319604;27;20740;-53
2022/06/25 12:18:36;;;;;;;15.10;14.00;;;28.60;1.00;;;;;;6325465;28;20235;-52
2022/06/25 12:21:39;;;;;;;14.05;13.05;;;28.90;1.00;;;;;;6326793;27;20368;-54
2022/06/25 12:24:47;;;;;;;17.70;15.40;;;29.00;1.00;;;;;;6328594;27;20362;-53
2022/06/25 12:27:53;;;;;;;14.10;13.10;;;29.10;1.00;;;;;;6333177;27;20236;-54
2022/06/25 12:31:09;;;;;;;12.52;11.63;;;29.30;1.00;;;;;;6324298;28;20703;-54
2022/06/25 12:34:12;;;;;;;13.85;12.85;;;29.50;1.00;;;;;;6322250;27;20749;-55
2022/06/25 12:37:28;;;;;;;13.55;12.68;;;29.60;1.00;;;;;;6321263;28;20236;-55
2022/06/25 12:40:36;;;;;;;13.30;12.27;;;29.90;1.00;;;;;;6318940;28;20229;-54
2022/06/25 12:43:53;;;;;;;14.10;13.05;;;30.20;1.00;;;;;;6328098;27;20285;-55
2022/06/25 12:47:04;;;;;;;13.52;12.38;;;30.30;1.00;;;;;;6328812;28;20237;-55
2022/06/25 12:50:07;;;;;;;13.70;12.77;;;30.20;1.00;;;;;;6318744;28;20229;-54
2022/06/25 12:53:12;;;;;;;13.63;12.70;;;30.20;1.00;;;;;;6312573;28;20353;-54
2022/06/25 12:56:15;;;;;;;12.88;11.90;;;30.20;1.00;;;;;;6324829;28;20743;-54
2022/06/25 12:59:21;;;;;;;13.25;12.25;;;30.10;1.00;;;;;;6328345;28;20648;-53
2022/06/25 13:02:25;;;;;;;12.07;11.27;;;30.20;1.00;;;;;;6321617;28;20224;-54
2022/06/25 13:05:28;;;;;;;11.63;10.60;;;30.30;1.00;;;;;;6325844;28;20725;-55
2022/06/25 13:08:31;;;;;;;12.68;11.82;;;30.20;1.00;;;;;;6323123;28;20238;-55
2022/06/25 13:11:34;;;;;;;10.88;10.13;;;30.20;1.00;;;;;;6317091;28;20605;-54
2022/06/25 13:14:39;;;;;;;12.02;11.15;;;30.40;1.00;;;;;;6331600;28;20334;-54
2022/06/25 13:17:42;;;;;;;12.55;11.57;;;30.40;1.00;;;;;;6327617;28;20250;-54
2022/06/25 13:20:46;;;;;;;12.43;11.35;;;30.60;1.00;;;;;;6320544;28;20314;-55
2022/06/25 13:23:49;;;;;;;10.57;9.90;;;30.80;1.00;;;;;;6327239;28;20240;-54
2022/06/25 13:26:53;;;;;;;11.18;10.38;;;30.90;1.00;;;;;;6329210;28;20519;-55
2022/06/25 13:29:57;;;;;;;9.63;9.05;;;31.10;1.00;;;;;;6316310;28;20324;-53
2022/06/25 13:33:00;;;;;;;10.18;9.43;;;31.30;1.00;;;;;;6294707;28;20240;-55
2022/06/25 13:36:03;;;;;;;10.82;9.98;;;31.50;1.00;;;;;;6326627;28;20236;-52
2022/06/25 13:39:07;;;;;;;9.07;8.57;;;31.30;1.00;;;;;;6332216;28;20545;-53
2022/06/25 13:42:10;;;;;;;10.35;9.70;;;31.10;1.00;;;;;;6308821;28;20310;-55
2022/06/25 13:45:14;;;;;;;9.35;8.80;;;30.90;1.00;;;;;;6330881;28;20470;-54
2022/06/25 13:48:17;;;;;;;10.52;9.82;;;30.70;1.00;;;;;;6329511;28;20280;-54
2022/06/25 13:51:21;;;;;;;11.20;10.10;;;30.30;1.00;;;;;;6322106;28;20339;-56
2022/06/25 13:54:24;;;;;;;8.50;7.75;;;29.90;1.00;;;;;;6319047;28;20788;-55
2022/06/25 13:57:28;;;;;;;8.90;8.30;;;29.60;1.00;;;;;;6324018;28;20316;-53
2022/06/25 14:00:39;;;;;;;8.95;8.50;;;29.40;1.00;;;;;;6321884;28;20232;-56
2022/06/25 14:03:46;;;;;;;8.88;8.27;;;29.10;1.00;;;;;;6324855;28;20323;-54
2022/06/25 14:06:50;;;;;;;9.68;9.05;;;28.90;1.00;;;;;;6319837;28;20331;-54
2022/06/25 14:09:53;;;;;;;8.95;8.35;;;28.60;1.00;;;;;;6319878;28;20382;-55
2022/06/25 14:12:56;;;;;;;9.25;8.65;;;28.40;1.00;;;;;;6316902;28;20758;-55
2022/06/25 14:16:01;;;;;;;9.03;8.57;;;28.20;1.00;;;;;;6319385;28;20319;-54
2022/06/25 14:19:04;;;;;;;9.53;9.03;;;28.00;1.00;;;;;;6324800;28;20238;-53
2022/06/25 14:22:08;;;;;;;10.30;9.60;;;27.80;1.00;;;;;;6316516;28;20298;-55
2022/06/25 14:25:21;;;;;;;10.13;9.53;;;27.70;1.00;;;;;;6327671;28;20263;-55
2022/06/25 14:28:24;;;;;;;12.00;11.07;;;27.60;1.00;;;;;;6322947;28;20250;-54
2022/06/25 14:31:30;;;;;;;11.87;11.00;;;27.50;1.00;;;;;;6328052;28;20259;-54
2022/06/25 14:34:37;;;;;;;11.93;11.20;;;27.20;1.00;;;;;;6331546;28;20236;-55
2022/06/25 14:44:23;;;;;;;10.43;9.83;;;26.90;1.00;;;;;;6329986;28;20232;-54
2022/06/25 14:47:27;;;;;;;9.93;9.17;;;26.70;1.00;;;;;;6320842;28;20285;-54
2022/06/25 14:50:30;;;;;;;10.33;9.63;;;26.50;1.00;;;;;;6322938;28;20465;-55
2022/06/25 14:53:36;;;;;;;9.87;9.07;;;26.60;1.00;;;;;;6327021;28;20231;-55
2022/06/25 14:56:39;;;;;;;9.27;8.63;;;26.60;1.00;;;;;;6333731;28;20499;-55
2022/06/25 14:59:42;;;;;;;8.90;8.40;;;26.70;1.00;;;;;;6331938;28;20240;-54
2022/06/25 15:02:48;;;;;;;9.43;8.83;;;26.90;1.00;;;;;;6332154;27;20228;-55
2022/06/25 15:05:53;;;;;;;9.17;8.57;;;27.30;1.00;;;;;;6337617;27;20340;-54
2022/06/25 15:08:56;;;;;;;7.53;7.20;;;27.70;1.00;;;;;;6329153;28;20248;-54
2022/06/25 15:11:59;;;;;;;9.40;8.87;;;28.10;1.00;;;;;;6326725;28;20331;-55
2022/06/25 15:15:02;;;;;;;9.67;8.83;;;28.40;1.00;;;;;;6327126;28;20781;-56
2022/06/25 15:18:06;;;;;;;8.63;8.03;;;28.50;1.00;;;;;;6332475;28;20364;-55
2022/06/25 15:21:09;;;;;;;8.97;7.80;;;28.40;1.00;;;;;;6331520;28;20353;-55
2022/06/25 15:24:12;;;;;;;8.40;7.90;;;28.50;1.00;;;;;;6321689;28;20257;-55
2022/06/25 15:27:15;;;;;;;7.87;7.57;;;28.50;1.00;;;;;;6334014;28;20239;-56
2022/06/25 15:30:18;;;;;;;7.93;7.27;;;28.50;1.00;;;;;;6331500;28;20801;-54
2022/06/25 15:33:23;;;;;;;7.53;7.10;;;28.70;1.00;;;;;;6326753;28;20251;-53
2022/06/25 15:36:29;;;;;;;7.70;7.30;;;28.70;1.00;;;;;;6300065;28;20315;-53
2022/06/25 15:39:36;;;;;;;8.00;7.68;;;28.80;1.00;;;;;;6325938;28;20259;-55
2022/06/25 15:42:39;;;;;;;8.98;8.48;;;29.00;1.00;;;;;;6325793;28;20632;-55
2022/06/25 15:45:44;;;;;;;8.02;7.40;;;29.20;1.00;;;;;;6333549;28;20315;-55
2022/06/25 15:48:48;;;;;;;8.05;7.50;;;29.20;1.00;;;;;;6331845;28;20239;-53
2022/06/25 15:51:51;;;;;;;8.20;7.80;;;29.20;1.00;;;;;;6327222;28;20236;-56
2022/06/25 15:54:54;;;;;;;8.53;8.07;;;29.30;1.00;;;;;;6331951;28;20293;-55
2022/06/25 15:57:57;;;;;;;9.55;8.95;;;29.30;1.00;;;;;;6329891;28;20255;-55
2022/06/25 16:01:00;;;;;;;9.20;8.68;;;29.30;1.00;;;;;;6331792;28;20247;-55
2022/06/25 16:04:05;;;;;;;8.77;8.27;;;29.10;1.00;;;;;;6329868;28;20228;-55
2022/06/25 16:07:08;;;;;;;8.88;8.20;;;29.00;1.00;;;;;;6317123;28;20784;-55
2022/06/25 16:10:11;;;;;;;8.95;8.45;;;28.90;1.00;;;;;;6328043;28;20307;-55
2022/06/25 16:13:21;;;;;;;9.48;8.77;;;28.80;1.00;;;;;;6327161;28;20327;-55
2022/06/25 16:16:24;;;;;;;10.43;9.73;;;28.80;1.00;;;;;;6332965;28;20224;-55
2022/06/25 16:19:39;;;;;;;9.10;8.20;;;28.60;1.00;;;;;;6332004;28;20315;-54